• Join FlightAware (Why Join?)
  • Login
  • US Flag 
02:05PM EST


 

Airport Tracker/Info


-or-


 

Live Flight TrackerFlight Track Log ✈ N583SD ✈ 10-Nov-2013 ✈ KUIN - KEAU

Flight Track Log - Related Links

Times and Time Zones

All times are in EST time to prevent confusion due to time zone crossing. See the N583SD flight status page for this flight to view local times or setup timezone preferences in your user account.

Time Position Orientation Groundspeed Altitude Reporting Facility
EST Latitude Longitude Course Direction KTS MPH feet Rate Location/Type
08:20PM 40.1022 -91.2308 North 261 300 10,600  Level Kansas City Center
08:22PM 40.1822 -91.2361 357° North 281 323 14,300 3,240 Climbing Kansas City Center
08:23PM 40.2636 -91.2406 358° North 289 333 17,300 2,220 Climbing Kansas City Center
08:24PM 40.3456 -91.2444 358° North 301 346 18,900 1,260 Climbing Kansas City Center
08:25PM 40.4018 -91.2068 356° North  Level FlightAware Approximate
08:25PM 40.4656 -91.2503 358° North 340 391 20,000  Level Kansas City Center
08:26PM 40.5750 -91.2553 358° North 373 429 20,600 1,140 Climbing Kansas City Center
08:27PM 40.6819 -91.2628 357° North 381 438 22,400 1,740 Climbing Chicago Center
08:28PM 40.7897 -91.2669 358° North 384 442 24,200 1,740 Climbing Chicago Center
08:29PM 40.8964 -91.2711 358° North 383 441 26,000 1,740 Climbing Chicago Center
08:30PM 41.0022 -91.2775 357° North 380 437 27,800 1,740 Climbing Chicago Center
08:31PM 41.1086 -91.2828 358° North 381 438 29,600 1,560 Climbing Chicago Center
08:32PM 41.2122 -91.2886 358° North 374 430 31,100 1,560 Climbing Chicago Center
08:33PM 41.3383 -91.2953 358° North 375 432 32,900 900 Climbing Chicago Center
08:34PM 41.4450 -91.3006 358° North 382 440 33,000  Climbing Chicago Center
08:35PM 41.5678 -91.3072 358° North 414 476 33,000  Level Chicago Center
08:36PM 41.6875 -91.3119 358° North 430 495 33,000 480 Level Chicago Center
08:37PM 41.8075 -91.3194 357° North 434 499 34,100 1,020 Climbing Chicago Center
08:38PM 41.9236 -91.3233 359° North 422 486 35,200 900 Climbing Chicago Center
08:39PM 42.0589 -91.3314 357° North 410 472 36,000 360 Climbing Chicago Center
08:40PM 42.1744 -91.3372 358° North 416 479 36,000  Level Chicago Center
08:41PM 42.2942 -91.3425 358° North 428 493 36,000  Level Chicago Center
08:42PM 42.4150 -91.3503 357° North 437 503 36,000  Level Chicago Center
08:43PM 42.5353 -91.3561 358° North 439 505 36,000 -300 Level Chicago Center
08:44PM 42.6764 -91.3633 358° North 433 498 35,400 -780 Descending Chicago Center
08:45PM 42.7878 -91.3694 358° North 416 479 34,400 -960 Descending Chicago Center
08:46PM 42.8967 -91.3767 357° North 402 463 33,500 -960 Descending Chicago Center
08:47PM 43.0069 -91.3822 358° North 403 464 32,500 -1,080 Descending Chicago Center
08:48PM 43.1411 -91.3897 358° North 406 467 31,300 -1,020 Descending Chicago Center
08:49PM 43.2089 -91.3917 359° North 407 468 30,700 -1,020 Descending Minneapolis Center
08:50PM 43.3414 -91.3972 358° North 403 464 29,500 -1,020 Descending Minneapolis Center
08:51PM 43.4536 -91.4036 358° North 406 467 28,600 -1,020 Descending Minneapolis Center
08:52PM 43.5608 -91.4094 358° North 397 457 27,500 -1,260 Descending Minneapolis Center
08:53PM 43.6664 -91.4164 357° North 386 444 26,100 -1,440 Descending Minneapolis Center
08:54PM 43.7719 -91.4219 358° North 385 443 24,600 -1,500 Descending Minneapolis Center
08:55PM 43.8717 -91.4267 358° North 371 427 23,100 -1,860 Descending Minneapolis Center
08:56PM 43.9903 -91.4333 358° North 360 414 20,900 -2,100 Descending Minneapolis Center
08:57PM 44.0992 -91.4381 358° North 365 420 18,800 -2,220 Descending Minneapolis Center
08:58PM 44.1975 -91.4422 358° North 359 413 16,400 -2,460 Descending Minneapolis Center
08:59PM 44.2917 -91.4497 357° North 346 398 13,800 -2,580 Descending Minneapolis Center
09:00PM 44.3886 -91.4564 357° North 349 402 11,100 -2,640 Descending Minneapolis Center
09:01PM 44.4975 -91.4611 358° North 346 398 8,400 -1,980 Descending Minneapolis Center
09:02PM 44.5703 -91.4650 358° North 278 320 7,100 -1,260 Descending Minneapolis Center
09:04PM 44.6486 -91.4503 North 270 311 5,800 -1,260 Descending Minneapolis Center
09:06PM 44.7783 -91.4308 North 246 283 3,300 -1,260 Descending Minneapolis Center
09:08PM 44.8500 -91.4833 340° North  Level FlightAware Approximate
09:15PM 44.8658 -91.4843 340° North  Level Estimated